Time;durP1;ratioP1;P1;durP2;ratioP2;P2;SDS_P1;SDS_P2;PMS_P1;PMS_P2;Temp;Humidity;BMP_temperature;BMP_pressure;BME280_temperature;BME280_humidity;BME280_pressure;Samples;Min_cycle;Max_cycle;Signal;HPM_P1;HPM_P2
2022/01/03 00:01:34;;;;;;;26.35;3.95;;;;;;;10.15;87.81;101101.78;5117009;28;20027;-64
2022/01/03 00:03:59;;;;;;;21.58;3.83;;;;;;;9.93;88.99;101099.28;5117198;28;20035;-64
2022/01/03 00:06:25;;;;;;;25.70;4.32;;;;;;;9.92;89.27;101099.31;5116931;28;20031;-65
2022/01/03 00:08:50;;;;;;;23.40;4.18;;;;;;;9.88;89.23;101090.59;5116911;28;20027;-65
2022/01/03 00:11:18;;;;;;;25.88;4.47;;;;;;;9.91;88.93;101098.44;5116763;28;20035;-63
2022/01/03 00:13:46;;;;;;;22.50;4.55;;;;;;;9.84;89.39;101099.38;5116520;28;20471;-65
2022/01/03 00:16:12;;;;;;;21.50;4.10;;;;;;;9.93;89.12;101104.53;5116795;28;20063;-63
2022/01/03 00:18:38;;;;;;;25.88;4.57;;;;;;;9.81;89.24;101099.38;5117252;28;20139;-64
2022/01/03 00:21:07;;;;;;;26.67;4.70;;;;;;;9.87;89.18;101114.19;5116471;28;20459;-64
2022/01/03 00:23:36;;;;;;;24.40;4.18;;;;;;;9.84;89.10;101109.81;5116726;28;20024;-65
2022/01/03 00:26:03;;;;;;;23.45;4.55;;;;;;;9.88;89.24;101115.88;5116102;28;20063;-64
2022/01/03 00:28:38;;;;;;;21.73;4.50;;;;;;;9.93;89.04;101120.22;5116542;28;20019;-63
2022/01/03 00:31:04;;;;;;;21.33;4.47;;;;;;;9.98;88.58;101118.44;5116775;28;20032;-63
2022/01/03 00:33:31;;;;;;;20.42;4.45;;;;;;;9.95;88.39;101118.47;5116483;28;20438;-64
2022/01/03 00:36:03;;;;;;;24.75;4.47;;;;;;;9.99;88.50;101125.41;5116561;28;20110;-64
2022/01/03 00:38:33;;;;;;;16.27;3.88;;;;;;;10.02;88.37;101122.78;5116303;28;20037;-64
2022/01/03 00:40:59;;;;;;;20.85;4.40;;;;;;;9.96;87.87;101119.31;5116589;28;20042;-65
2022/01/03 00:43:26;;;;;;;21.27;5.13;;;;;;;10.05;87.28;101120.13;5116252;28;20036;-63
2022/01/03 00:45:52;;;;;;;21.70;4.40;;;;;;;10.00;87.43;101111.47;5116350;28;20028;-64
2022/01/03 00:48:18;;;;;;;24.17;5.13;;;;;;;10.07;87.28;101097.44;5116210;28;20027;-64
2022/01/03 00:50:43;;;;;;;23.88;4.55;;;;;;;10.13;86.62;101104.38;5116067;28;20024;-65
2022/01/03 00:53:09;;;;;;;21.38;4.70;;;;;;;10.08;86.04;101107.03;5116236;28;20036;-65
2022/01/03 00:55:34;;;;;;;20.67;5.20;;;;;;;10.03;86.75;101110.56;5115860;28;20042;-64
2022/01/03 00:58:05;;;;;;;21.48;5.25;;;;;;;10.09;86.28;101100.06;5115957;28;20036;-65
2022/01/03 01:00:36;;;;;;;20.77;5.00;;;;;;;10.06;86.44;101110.53;5116112;28;20028;-63
2022/01/03 01:03:05;;;;;;;23.40;4.82;;;;;;;10.07;85.97;101112.28;5115260;28;20324;-63
2022/01/03 01:05:32;;;;;;;22.75;5.00;;;;;;;10.05;86.29;101114.88;5115779;28;20031;-66
2022/01/03 01:07:58;;;;;;;18.60;4.68;;;;;;;10.05;85.83;101122.72;5115861;28;20027;-63
2022/01/03 01:10:31;;;;;;;20.88;5.43;;;;;;;10.08;85.60;101117.50;5115705;28;20042;-64
2022/01/03 01:12:57;;;;;;;17.35;4.70;;;;;;;10.20;84.63;101100.03;5115971;28;20062;-65
2022/01/03 01:15:25;;;;;;;20.33;4.78;;;;;;;10.11;85.63;101109.63;5115765;28;20031;-64
2022/01/03 01:17:55;;;;;;;19.55;4.93;;;;;;;10.08;86.79;101119.22;5115594;28;20020;-65
2022/01/03 01:20:21;;;;;;;21.00;4.47;;;;;;;10.05;86.34;101119.25;5115151;28;20520;-65
2022/01/03 01:22:49;;;;;;;27.25;5.40;;;;;;;9.99;86.92;101114.94;5115598;28;20102;-64
2022/01/03 01:27:52;;;;;;;26.92;5.45;;;;;;;9.98;87.03;101118.44;5115682;28;20050;-64
2022/01/03 01:30:23;;;;;;;23.55;4.88;;;;;;;9.88;87.88;101139.41;5115611;28;20023;-65
2022/01/03 01:32:54;;;;;;;20.95;5.00;;;;;;;9.88;87.91;101134.19;5115479;28;20114;-63
2022/01/03 01:35:23;;;;;;;18.45;5.10;;;;;;;9.99;87.21;101135.88;5115461;28;20027;-63
2022/01/03 01:37:54;;;;;;;28.88;4.70;;;;;;;9.93;87.02;101145.47;5115421;28;20035;-66
2022/01/03 01:40:22;;;;;;;21.25;4.85;;;;;;;9.97;86.65;101152.44;5115491;28;20031;-63
2022/01/03 01:42:48;;;;;;;23.50;5.30;;;;;;;10.01;86.45;101162.88;5115508;28;20039;-64
2022/01/03 01:45:16;;;;;;;25.35;4.88;;;;;;;9.96;87.07;101155.94;5115294;28;20035;-64
2022/01/03 01:47:44;;;;;;;21.92;5.50;;;;;;;9.87;87.58;101156.84;5115144;28;20538;-64
2022/01/03 01:50:10;;;;;;;23.50;5.50;;;;;;;9.84;87.85;101153.41;5115177;28;20027;-64
2022/01/03 01:52:37;;;;;;;21.10;5.10;;;;;;;9.76;88.36;101154.28;5115800;28;20042;-65
2022/01/03 01:55:11;;;;;;;24.25;5.05;;;;;;;9.73;88.52;101153.44;5115680;28;20031;-63
2022/01/03 01:58:03;;;;;;;26.73;4.70;;;;;;;9.65;88.60;101135.19;5115353;28;20089;-66
2022/01/03 02:00:33;;;;;;;29.50;4.50;;;;;;;9.66;88.00;101143.91;5115565;28;20038;-64
2022/01/03 02:03:07;;;;;;;19.80;4.50;;;;;;;9.55;88.75;101154.38;5115408;28;20104;-64
2022/01/03 02:05:56;;;;;;;27.00;4.75;;;;;;;9.57;88.81;101152.63;5115274;28;20027;-64
2022/01/03 02:08:26;;;;;;;22.25;4.25;;;;;;;9.63;88.48;101156.97;5114777;28;20110;-65
2022/01/03 02:11:01;;;;;;;24.08;3.97;;;;;;;9.56;88.91;101155.25;5115074;28;20407;-63
2022/01/03 02:13:28;;;;;;;20.02;4.22;;;;;;;9.46;89.27;101153.56;5115265;28;20052;-63
2022/01/03 02:16:03;;;;;;;24.27;3.95;;;;;;;9.50;89.21;101155.31;5118274;28;20122;-64
2022/01/03 02:18:29;;;;;;;25.60;4.45;;;;;;;9.39;89.82;101153.56;5119240;28;20027;-62
2022/01/03 02:20:55;;;;;;;21.67;4.15;;;;;;;9.36;89.91;101156.19;5118908;28;20338;-65
2022/01/03 02:23:20;;;;;;;28.48;4.32;;;;;;;9.28;90.53;101162.34;5119020;28;20038;-65
2022/01/03 02:25:46;;;;;;;24.20;4.50;;;;;;;9.24;90.76;101158.84;5118957;28;20110;-65
2022/01/03 02:28:11;;;;;;;26.98;4.30;;;;;;;9.18;91.04;101151.03;5118765;28;20039;-63
2022/01/03 02:30:37;;;;;;;21.00;3.95;;;;;;;9.09;91.31;101153.69;5118928;28;20024;-64
2022/01/03 02:33:04;;;;;;;21.85;4.07;;;;;;;9.14;91.02;101158.91;5118669;28;20343;-65
2022/01/03 02:35:30;;;;;;;20.73;3.83;;;;;;;9.21;90.41;101156.25;5118402;28;20042;-64
2022/01/03 02:37:56;;;;;;;25.55;3.88;;;;;;;9.16;91.31;101154.53;5118658;28;20330;-65
2022/01/03 02:40:22;;;;;;;24.23;4.28;;;;;;;9.11;91.33;101151.94;5118425;28;20032;-63
2022/01/03 02:42:48;;;;;;;21.27;4.38;;;;;;;9.14;91.12;101156.28;5118449;28;20446;-64
2022/01/03 02:45:16;;;;;;;19.33;4.05;;;;;;;9.18;90.82;101158.03;5118614;28;20042;-63
2022/01/03 02:47:48;;;;;;;25.15;4.45;;;;;;;9.23;90.93;101169.31;5118435;28;20036;-64
2022/01/03 02:50:15;;;;;;;20.45;4.07;;;;;;;9.29;90.82;101158.84;5118395;28;20114;-64
2022/01/03 02:52:40;;;;;;;28.23;4.80;;;;;;;9.40;89.86;101157.06;5118301;28;20533;-63
2022/01/03 02:55:07;;;;;;;24.42;4.25;;;;;;;9.37;90.03;101146.63;5118436;28;20055;-65
2022/01/03 02:57:38;;;;;;;24.60;4.32;;;;;;;9.30;91.07;101152.75;5118437;28;20106;-63
2022/01/03 03:00:06;;;;;;;27.25;4.30;;;;;;;9.39;89.85;101161.41;5118150;28;20431;-64
2022/01/03 03:02:32;;;;;;;29.35;4.50;;;;;;;9.16;89.97;101129.31;5118133;28;20032;-64
2022/01/03 03:04:59;;;;;;;23.90;4.28;;;;;;;9.29;90.18;101157.09;5118122;28;20100;-65
2022/01/03 03:07:27;;;;;;;23.00;4.72;;;;;;;9.16;90.98;101154.53;5118048;28;20114;-64
2022/01/03 03:09:53;;;;;;;28.67;4.68;;;;;;;9.17;90.77;101161.50;5118031;28;20031;-64
2022/01/03 03:12:19;;;;;;;24.52;4.85;;;;;;;9.20;90.66;101158.84;5118016;28;20058;-63
2022/01/03 03:14:45;;;;;;;26.98;5.47;;;;;;;9.07;91.41;101155.41;5117848;28;20043;-65
2022/01/03 03:17:10;;;;;;;32.60;5.10;;;;;;;9.15;90.98;101158.03;5117873;28;20085;-63
2022/01/03 03:19:58;;;;;;;26.63;4.70;;;;;;;9.09;91.53;101169.34;5117855;28;20110;-65
2022/01/03 03:22:25;;;;;;;26.52;4.30;;;;;;;9.10;91.53;101162.38;5117843;28;20042;-63
2022/01/03 03:24:58;;;;;;;35.90;4.28;;;;;;;9.08;91.68;101162.38;5117918;28;20035;-64
2022/01/03 03:27:23;;;;;;;31.20;4.22;;;;;;;9.04;92.05;101150.19;5116751;28;20108;-64
2022/01/03 03:29:51;;;;;;;26.00;4.30;;;;;;;9.11;91.87;101172.81;5117551;28;20032;-63
2022/01/03 03:32:18;;;;;;;28.02;4.43;;;;;;;9.25;90.94;101163.22;5117538;28;20484;-64
2022/01/03 03:34:46;;;;;;;22.90;4.18;;;;;;;9.16;91.77;101157.16;5117695;28;20092;-64
2022/01/03 03:37:11;;;;;;;23.60;4.00;;;;;;;9.33;91.33;101169.28;5117656;28;20039;-66
2022/01/03 03:39:38;;;;;;;25.88;4.13;;;;;;;9.36;90.72;101161.41;5116991;28;20059;-65
2022/01/03 03:42:04;;;;;;;24.58;4.30;;;;;;;9.37;91.35;101175.34;5117793;28;20031;-65
2022/01/03 03:44:30;;;;;;;25.48;4.10;;;;;;;9.34;91.23;101159.72;5117361;28;20030;-64
2022/01/03 03:46:56;;;;;;;26.08;3.95;;;;;;;9.39;91.20;101161.41;5117427;28;20038;-62
2022/01/03 03:49:21;;;;;;;24.08;3.97;;;;;;;9.42;91.06;101163.16;5117381;28;20066;-63
2022/01/03 03:51:46;;;;;;;29.63;4.32;;;;;;;9.36;91.51;101164.03;5117393;28;20032;-66
2022/01/03 03:54:12;;;;;;;21.63;3.72;;;;;;;9.34;91.47;101160.59;5117577;28;20031;-64
2022/01/03 03:56:37;;;;;;;25.77;3.78;;;;;;;9.24;90.86;101142.31;5117178;28;20119;-64
2022/01/03 03:59:02;;;;;;;26.67;4.47;;;;;;;9.38;90.64;101158.81;5117131;28;20046;-66
2022/01/03 04:01:28;;;;;;;28.17;4.20;;;;;;;9.17;91.44;101145.84;5116818;28;20028;-64
2022/01/03 04:03:53;;;;;;;26.88;4.75;;;;;;;9.26;91.27;101151.03;5117180;28;20031;-63
2022/01/03 04:06:19;;;;;;;26.92;4.22;;;;;;;9.21;91.45;101148.41;5117013;28;20192;-64
2022/01/03 04:08:45;;;;;;;25.95;4.38;;;;;;;9.33;91.10;101151.00;5117117;28;20038;-65
2022/01/03 04:11:13;;;;;;;23.63;4.28;;;;;;;9.40;90.77;101144.88;5116834;28;20031;-65
2022/01/03 04:13:38;;;;;;;27.15;4.35;;;;;;;9.48;90.17;101146.59;5116826;28;20043;-64
2022/01/03 04:16:04;;;;;;;23.95;4.00;;;;;;;9.46;90.86;101148.34;5116879;28;20033;-65
2022/01/03 04:18:29;;;;;;;31.00;5.10;;;;;;;9.43;90.76;101123.97;5116835;28;20102;-66
2022/01/03 04:20:54;;;;;;;24.48;4.03;;;;;;;9.35;91.27;101120.50;5116713;28;20031;-65
2022/01/03 04:23:19;;;;;;;26.85;4.30;;;;;;;9.49;90.72;101140.50;5116779;28;20316;-65
2022/01/03 04:25:45;;;;;;;29.55;4.30;;;;;;;9.50;90.57;101129.19;5116748;28;20067;-63
2022/01/03 04:28:11;;;;;;;24.08;4.13;;;;;;;9.51;90.52;101137.00;5116609;28;20174;-64
2022/01/03 04:30:36;;;;;;;25.92;4.63;;;;;;;9.49;90.71;101122.22;5116630;28;20054;-64
2022/01/03 04:33:02;;;;;;;25.52;4.65;;;;;;;9.54;89.91;101123.03;5116432;28;20028;-63
2022/01/03 04:35:27;;;;;;;30.60;4.35;;;;;;;9.46;90.67;101122.22;5116455;28;20393;-64
2022/01/03 04:37:52;;;;;;;21.42;4.20;;;;;;;9.45;90.59;101118.75;5116651;28;20028;-63
2022/01/03 04:40:17;;;;;;;28.77;4.47;;;;;;;9.56;89.72;101130.00;5116189;28;20123;-63
2022/01/03 04:42:43;;;;;;;28.92;4.10;;;;;;;9.55;90.22;101122.16;5116220;28;20028;-65
2022/01/03 04:45:08;;;;;;;29.10;4.47;;;;;;;9.53;90.39;101131.75;5116477;28;20392;-63
2022/01/03 04:47:33;;;;;;;25.35;4.43;;;;;;;9.56;90.17;101130.00;5116318;28;20032;-63
2022/01/03 04:49:59;;;;;;;29.27;4.40;;;;;;;9.56;90.72;101123.91;5116477;28;20031;-64
2022/01/03 04:52:24;;;;;;;28.58;4.55;;;;;;;9.66;89.69;101120.38;5116306;28;20069;-64
2022/01/03 04:54:49;;;;;;;24.80;3.63;;;;;;;9.61;90.32;101111.69;5116098;28;20035;-64
2022/01/03 04:57:14;;;;;;;22.90;4.10;;;;;;;9.75;89.07;101121.19;5115570;28;20027;-63
2022/01/03 04:59:40;;;;;;;27.80;4.63;;;;;;;9.63;89.26;101110.81;5116062;28;20038;-64
2022/01/03 05:02:05;;;;;;;27.88;4.35;;;;;;;9.73;88.84;101115.09;5116054;28;20144;-63
2022/01/03 05:04:30;;;;;;;30.30;4.72;;;;;;;9.65;89.89;101118.66;5116016;28;20081;-63
2022/01/03 05:06:56;;;;;;;23.83;4.57;;;;;;;9.60;90.29;101123.00;5116150;28;20024;-65
2022/01/03 05:09:21;;;;;;;30.35;4.40;;;;;;;9.62;90.27;101124.75;5116033;28;20109;-65
2022/01/03 05:11:46;;;;;;;21.55;3.97;;;;;;;9.78;88.80;101110.72;5115470;28;20392;-64
2022/01/03 05:14:11;;;;;;;25.67;4.20;;;;;;;9.64;90.42;101116.91;5115819;28;20055;-62
2022/01/03 05:16:37;;;;;;;28.77;4.28;;;;;;;9.67;90.07;101120.38;5115936;28;20043;-64
2022/01/03 05:19:02;;;;;;;21.38;3.80;;;;;;;9.67;89.95;101104.69;5115768;28;20409;-63
2022/01/03 05:21:28;;;;;;;24.80;4.25;;;;;;;9.66;89.98;101112.53;5115868;28;20042;-64
2022/01/03 05:23:53;;;;;;;23.38;4.32;;;;;;;9.61;90.04;101096.88;5115765;28;20027;-65
2022/01/03 05:26:18;;;;;;;27.90;4.72;;;;;;;9.64;89.92;101093.38;5114976;28;20368;-64
2022/01/03 05:28:45;;;;;;;26.45;4.53;;;;;;;9.60;90.05;101099.50;5115763;28;20419;-65
2022/01/03 05:31:12;;;;;;;24.50;4.20;;;;;;;9.57;90.70;101096.91;5115602;28;20043;-65
2022/01/03 05:33:38;;;;;;;25.83;5.18;;;;;;;9.63;90.24;101105.59;5115522;28;20417;-63
2022/01/03 05:36:03;;;;;;;24.13;4.55;;;;;;;9.61;90.86;101098.63;5115556;28;20064;-64
2022/01/03 05:38:29;;;;;;;23.92;3.90;;;;;;;9.64;90.10;101094.25;5115590;28;20035;-64
2022/01/03 05:40:54;;;;;;;20.70;4.32;;;;;;;9.65;90.12;101095.13;5115286;28;20112;-64
2022/01/03 05:43:19;;;;;;;21.08;3.85;;;;;;;9.60;90.24;101084.69;5115493;28;20040;-64
2022/01/03 05:45:45;;;;;;;20.33;3.90;;;;;;;9.58;90.47;101093.41;5115338;28;20118;-64
2022/01/03 05:48:10;;;;;;;25.65;4.85;;;;;;;9.58;90.35;101103.88;5115410;28;20041;-63
2022/01/03 05:50:36;;;;;;;30.85;4.50;;;;;;;9.60;89.84;101079.47;5118328;28;20019;-63
2022/01/03 05:53:02;;;;;;;20.00;3.30;;;;;;;9.58;90.01;101077.75;5119754;28;20389;-65
2022/01/03 05:55:27;;;;;;;27.75;3.90;;;;;;;9.64;90.05;101075.09;5101394;28;20036;-63
2022/01/03 05:57:52;;;;;;;27.83;4.20;;;;;;;9.60;89.60;101081.22;5119678;28;20027;-64
2022/01/03 06:00:20;;;;;;;24.50;3.63;;;;;;;9.57;89.99;101070.78;5119248;28;20035;-65
2022/01/03 06:02:45;;;;;;;21.63;3.90;;;;;;;9.61;89.41;101083.81;5119429;28;20046;-63
2022/01/03 06:05:20;;;;;;;26.95;3.75;;;;;;;9.52;90.17;101083.88;5119274;28;20035;-63
2022/01/03 06:07:46;;;;;;;24.77;4.47;;;;;;;9.48;90.25;101078.69;5119570;28;20042;-63
2022/01/03 06:10:15;;;;;;;21.63;4.60;;;;;;;9.50;90.49;101088.25;5118983;28;20028;-65
2022/01/03 06:12:42;;;;;;;23.25;4.03;;;;;;;9.56;89.86;101077.75;5119334;28;20367;-63
2022/01/03 06:15:08;;;;;;;20.88;3.88;;;;;;;9.53;90.74;101082.09;5119268;28;20028;-64
2022/01/03 06:17:33;;;;;;;26.38;3.97;;;;;;;9.57;89.98;101079.47;5119516;28;20548;-65
2022/01/03 06:19:58;;;;;;;30.80;3.67;;;;;;;9.53;90.70;101071.66;5119162;28;20035;-63
2022/01/03 06:22:23;;;;;;;24.17;3.53;;;;;;;9.52;90.63;101069.97;5119279;28;20320;-64
2022/01/03 06:24:49;;;;;;;22.92;3.58;;;;;;;9.39;91.42;101063.91;5118962;28;20027;-62
2022/01/03 06:27:16;;;;;;;23.40;3.78;;;;;;;9.39;91.60;101074.34;5103611;28;20042;-63
2022/01/03 06:29:41;;;;;;;23.60;3.78;;;;;;;9.33;91.42;101069.19;5098576;28;20032;-63
2022/01/03 06:32:06;;;;;;;24.15;3.22;;;;;;;9.33;91.62;101077.00;5098435;28;20401;-63
2022/01/03 06:34:32;;;;;;;27.38;4.07;;;;;;;9.28;92.13;101071.81;5098609;28;20122;-64
2022/01/03 06:36:57;;;;;;;20.95;3.50;;;;;;;9.24;92.25;101069.19;5098258;28;20047;-64
2022/01/03 06:39:22;;;;;;;24.27;3.53;;;;;;;9.23;92.01;101060.50;5098262;28;20036;-65
2022/01/03 06:41:47;;;;;;;16.85;2.90;;;;;;;9.29;93.11;101070.94;5097936;28;20374;-64
2022/01/03 06:44:13;;;;;;;22.15;3.30;;;;;;;9.30;94.56;101072.66;5098112;28;20028;-64
2022/01/03 06:46:38;;;;;;;20.88;3.30;;;;;;;9.25;94.89;101070.94;5098055;28;20103;-65
2022/01/03 06:49:05;;;;;;;19.25;3.63;;;;;;;9.17;95.80;101068.38;5098433;28;20024;-65
2022/01/03 06:51:34;;;;;;;22.95;3.90;;;;;;;9.20;95.59;101065.72;5098176;28;20039;-65
2022/01/03 06:54:03;;;;;;;15.68;3.20;;;;;;;9.18;96.69;101071.84;5098005;28;20032;-64
2022/01/03 06:56:29;;;;;;;24.75;3.60;;;;;;;9.17;96.79;101070.13;5097928;28;20332;-66
2022/01/03 06:58:54;;;;;;;13.68;3.22;;;;;;;9.32;96.01;101062.22;5097896;28;20102;-64
2022/01/03 07:01:19;;;;;;;19.58;3.00;;;;;;;9.18;96.88;101064.88;5096389;28;20132;-64
2022/01/03 07:03:44;;;;;;;20.73;3.60;;;;;;;9.16;97.61;101071.88;5098014;28;20032;-64
2022/01/03 07:06:10;;;;;;;20.48;3.92;;;;;;;9.17;97.29;101071.00;5098137;28;20484;-65
2022/01/03 07:08:35;;;;;;;16.48;2.85;;;;;;;9.08;97.95;101064.03;5108064;28;20050;-65
2022/01/03 07:11:00;;;;;;;18.38;3.47;;;;;;;9.10;97.42;101061.44;5112974;28;20435;-63
2022/01/03 07:13:28;;;;;;;21.10;3.22;;;;;;;9.03;98.05;101063.19;5108545;28;20043;-63
2022/01/03 07:21:21;;;;;;;18.00;3.58;;;;;;;9.17;96.64;101052.72;5110415;28;20055;-65
2022/01/03 07:23:46;;;;;;;18.85;3.00;;;;;;;8.97;97.46;101044.97;5106313;28;20024;-66
2022/01/03 07:26:12;;;;;;;17.00;3.05;;;;;;;9.05;97.55;101056.22;5097485;28;20036;-65
2022/01/03 07:28:37;;;;;;;21.73;3.33;;;;;;;9.09;96.83;101057.09;5097547;28;20046;-65
2022/01/03 07:31:03;;;;;;;21.02;3.00;;;;;;;9.16;95.61;101068.38;5100190;28;20032;-65
2022/01/03 07:33:28;;;;;;;21.23;3.40;;;;;;;8.95;96.97;101067.59;5097475;28;20036;-66
2022/01/03 07:35:53;;;;;;;23.25;3.85;;;;;;;9.00;96.25;101063.19;5097668;28;20051;-66
2022/01/03 07:38:18;;;;;;;24.42;3.65;;;;;;;8.87;97.05;101064.13;5097542;28;20454;-65
2022/01/03 07:40:44;;;;;;;22.25;3.28;;;;;;;8.89;97.58;101079.78;5097318;28;20039;-64
2022/01/03 07:43:09;;;;;;;20.60;3.33;;;;;;;8.90;97.25;101071.06;5097553;28;20149;-66
2022/01/03 07:45:35;;;;;;;21.25;3.85;;;;;;;8.90;97.36;101063.25;5097129;28;20042;-66
2022/01/03 07:48:00;;;;;;;20.50;3.35;;;;;;;8.97;97.11;101071.06;5097326;28;20415;-63
2022/01/03 07:50:25;;;;;;;22.10;3.60;;;;;;;9.05;96.28;101064.06;5106877;28;20447;-62
2022/01/03 07:52:51;;;;;;;22.75;3.40;;;;;;;9.04;96.61;101077.09;5106895;28;20059;-62
2022/01/03 07:55:16;;;;;;;17.73;3.40;;;;;;;9.13;96.02;101076.22;5105486;28;20173;-61
2022/01/03 07:57:43;;;;;;;20.30;3.75;;;;;;;9.15;95.87;101085.78;5108220;28;20027;-68
2022/01/03 08:00:11;;;;;;;21.63;3.40;;;;;;;9.23;95.17;101088.34;5107352;28;20033;-68
2022/01/03 08:02:38;;;;;;;20.02;3.80;;;;;;;9.14;96.00;101086.66;5105659;28;20016;-68
2022/01/03 08:05:04;;;;;;;21.20;4.00;;;;;;;9.22;95.84;101084.00;5110673;28;20039;-67
2022/01/03 08:07:30;;;;;;;18.33;3.58;;;;;;;9.11;95.00;101052.72;5105079;28;20463;-66
2022/01/03 08:09:55;;;;;;;23.38;4.00;;;;;;;9.41;93.09;101068.25;5106487;28;20107;-66
2022/01/03 08:12:20;;;;;;;24.13;3.80;;;;;;;9.33;93.82;101061.34;5105272;28;20393;-68
2022/01/03 08:14:45;;;;;;;17.77;3.55;;;;;;;9.26;94.50;101078.78;5117014;28;20028;-66
2022/01/03 08:17:11;;;;;;;20.52;3.35;;;;;;;9.19;94.78;101082.28;5116586;28;20058;-67
2022/01/03 08:19:36;;;;;;;18.48;3.45;;;;;;;9.20;94.88;101086.63;5116879;28;20397;-66
2022/01/03 08:22:01;;;;;;;22.30;3.45;;;;;;;9.16;94.71;101074.47;5116678;28;20023;-66
2022/01/03 08:24:27;;;;;;;16.33;3.25;;;;;;;9.18;94.94;101072.69;5116801;28;20039;-67
2022/01/03 08:26:52;;;;;;;22.70;3.78;;;;;;;9.24;94.64;101080.50;5116574;28;20434;-60
2022/01/03 08:29:18;;;;;;;20.02;3.50;;;;;;;9.19;93.92;101060.50;5116648;28;20036;-66
2022/01/03 08:31:43;;;;;;;22.50;3.70;;;;;;;9.28;94.37;101066.56;5110294;27;20457;-69
2022/01/03 08:34:08;;;;;;;19.17;3.60;;;;;;;9.33;93.81;101067.44;5095667;28;20035;-65
2022/01/03 08:36:33;;;;;;;21.38;3.38;;;;;;;9.40;93.44;101061.28;5095413;28;20089;-67
2022/01/03 08:38:59;;;;;;;21.42;3.90;;;;;;;9.48;92.69;101063.88;5077828;28;20454;-64
2022/01/03 08:41:24;;;;;;;23.83;3.85;;;;;;;9.37;93.60;101060.44;5095595;28;20032;-65
2022/01/03 08:43:51;;;;;;;19.48;3.47;;;;;;;9.44;93.71;101064.75;5100755;27;20074;-67
2022/01/03 08:46:17;;;;;;;21.17;3.65;;;;;;;9.51;93.08;101048.19;5116184;27;20572;-66
2022/01/03 08:48:42;;;;;;;22.48;3.85;;;;;;;9.45;94.02;101065.63;5100460;27;20372;-65
2022/01/03 08:51:07;;;;;;;19.45;3.22;;;;;;;9.55;92.74;101062.94;5095456;28;20067;-66
2022/01/03 08:53:33;;;;;;;18.25;3.35;;;;;;;9.58;92.29;101075.13;5095363;28;20043;-67
2022/01/03 08:55:59;;;;;;;19.55;3.65;;;;;;;9.72;91.49;101078.53;5104875;28;20364;-66
2022/01/03 08:58:25;;;;;;;20.00;3.67;;;;;;;9.60;92.52;101076.00;5099064;28;20035;-65
2022/01/03 09:00:51;;;;;;;18.95;3.42;;;;;;;9.56;92.69;101082.09;5097897;28;20032;-66
2022/01/03 09:03:18;;;;;;;20.27;3.58;;;;;;;9.57;92.57;101095.16;5095372;28;20359;-65
2022/01/03 09:05:43;;;;;;;22.48;4.22;;;;;;;9.61;92.27;101096.88;5095345;28;20177;-65
2022/01/03 09:08:09;;;;;;;25.10;3.35;;;;;;;9.72;91.86;101089.84;5094801;28;20119;-65
2022/01/03 09:10:35;;;;;;;25.67;3.97;;;;;;;9.82;91.54;101076.72;5095348;28;20036;-65
2022/01/03 09:13:00;;;;;;;23.45;3.33;;;;;;;9.84;91.79;101077.59;5095267;28;20382;-64
2022/01/03 09:15:25;;;;;;;22.33;3.58;;;;;;;9.88;91.79;101080.16;5095381;28;20035;-66
2022/01/03 09:17:51;;;;;;;18.58;3.40;;;;;;;9.99;91.15;101074.88;5094954;28;20039;-65
2022/01/03 09:20:16;;;;;;;23.58;3.20;;;;;;;10.08;90.46;101078.28;5094903;28;20043;-65
2022/01/03 09:22:46;;;;;;;26.05;3.72;;;;;;;10.08;90.81;101072.16;5095260;28;20363;-64
2022/01/03 09:30:29;;;;;;;20.48;3.15;;;;;;;10.09;89.43;101066.94;5096568;28;20051;-66
2022/01/03 09:32:55;;;;;;;19.40;3.60;;;;;;;10.03;90.23;101074.84;5115429;28;20031;-65
2022/01/03 09:35:21;;;;;;;23.48;4.10;;;;;;;10.09;89.76;101053.84;5115458;28;20023;-65
2022/01/03 09:37:47;;;;;;;18.48;3.97;;;;;;;10.11;89.22;101038.16;5115536;28;20423;-65
2022/01/03 09:40:13;;;;;;;20.63;3.30;;;;;;;10.07;89.67;101044.28;5115748;28;20114;-59
2022/01/03 09:42:39;;;;;;;25.23;4.15;;;;;;;10.04;89.99;101044.34;5115458;28;20078;-65
2022/01/03 09:45:08;;;;;;;19.10;3.70;;;;;;;10.07;89.78;101055.63;5109222;28;20031;-65
2022/01/03 09:47:37;;;;;;;21.70;3.33;;;;;;;10.04;89.86;101058.25;5115898;28;20036;-62
2022/01/03 09:50:02;;;;;;;22.23;3.60;;;;;;;10.06;90.20;101055.63;5115266;28;20032;-64
2022/01/03 09:52:30;;;;;;;26.67;3.85;;;;;;;10.10;89.98;101049.50;5115408;28;20438;-63
2022/01/03 09:54:57;;;;;;;24.40;4.05;;;;;;;10.05;89.88;101044.28;5110683;28;20065;-63
2022/01/03 09:57:25;;;;;;;21.42;3.97;;;;;;;10.10;89.59;101058.22;5115199;28;20027;-63
2022/01/03 09:59:50;;;;;;;20.40;3.50;;;;;;;10.07;89.40;101041.66;5115577;28;20031;-64
2022/01/03 10:02:17;;;;;;;23.85;3.20;;;;;;;10.06;90.19;101047.78;5115123;28;20023;-63
2022/01/03 10:04:42;;;;;;;25.55;4.32;;;;;;;9.98;90.66;101037.41;5111391;28;20032;-62
2022/01/03 10:07:10;;;;;;;24.35;3.80;;;;;;;10.02;90.37;101054.81;5094689;28;20461;-64
2022/01/03 10:09:38;;;;;;;18.98;3.95;;;;;;;10.07;90.02;101045.16;5094805;28;20350;-65
2022/01/03 10:12:04;;;;;;;17.10;3.58;;;;;;;10.04;90.15;101033.88;5094657;28;20042;-65
2022/01/03 10:14:29;;;;;;;24.08;4.68;;;;;;;10.10;89.64;101047.75;5094760;28;20052;-65
2022/01/03 10:16:54;;;;;;;27.30;3.90;;;;;;;10.17;88.89;101039.88;5094647;28;20068;-64
2022/01/03 10:19:20;;;;;;;18.05;3.35;;;;;;;10.15;89.07;101042.50;5094407;28;20028;-65
2022/01/03 10:21:48;;;;;;;19.48;3.53;;;;;;;10.25;89.84;101053.75;5094863;28;20032;-64
2022/01/03 10:24:15;;;;;;;22.48;3.70;;;;;;;10.35;88.85;101056.28;5094736;28;20122;-65
2022/01/03 10:26:43;;;;;;;24.38;4.13;;;;;;;10.33;88.80;101047.59;5094224;28;20047;-63
2022/01/03 10:29:20;;;;;;;21.48;3.47;;;;;;;10.44;88.61;101039.63;5094509;28;20035;-63
2022/01/03 10:31:47;;;;;;;25.90;3.90;;;;;;;10.38;89.29;101039.72;5097171;28;20023;-64
2022/01/03 10:34:16;;;;;;;20.88;3.90;;;;;;;10.45;88.16;101038.75;5096866;28;20170;-64
2022/01/03 10:36:43;;;;;;;19.75;4.55;;;;;;;10.37;88.97;101031.00;5097193;28;20454;-66
2022/01/03 10:39:13;;;;;;;18.50;3.58;;;;;;;10.45;87.99;101025.66;5098143;28;20035;-65
2022/01/03 10:41:39;;;;;;;20.23;3.42;;;;;;;10.40;88.41;101028.31;5098132;28;20032;-64
2022/01/03 10:44:05;;;;;;;19.67;3.63;;;;;;;10.43;87.88;101028.31;5106090;28;20371;-65
2022/01/03 10:46:33;;;;;;;22.00;3.90;;;;;;;10.51;87.56;101037.84;5098606;28;20110;-63
2022/01/03 10:49:08;;;;;;;17.60;3.30;;;;;;;10.60;87.52;101024.63;5114695;28;20032;-64
2022/01/03 10:51:34;;;;;;;15.68;3.30;;;;;;;10.64;86.65;101019.38;5116003;28;20065;-67
2022/01/03 10:54:00;;;;;;;18.60;3.60;;;;;;;10.59;86.15;101001.97;5108508;28;20490;-67
2022/01/03 10:56:38;;;;;;;18.92;3.40;;;;;;;10.64;86.77;101006.28;5106547;28;20032;-67
2022/01/03 10:59:21;;;;;;;22.33;3.35;;;;;;;10.72;86.58;100999.22;5107368;28;20040;-66
2022/01/03 11:02:01;;;;;;;22.65;4.13;;;;;;;10.71;86.73;100989.63;5101296;28;20111;-65
2022/01/03 11:05:03;;;;;;;16.65;3.30;;;;;;;10.75;85.85;100987.81;5109036;28;20461;-66
2022/01/03 11:13:11;;;;;;;18.65;3.72;;;;;;;10.72;85.96;100973.06;5118325;28;20066;-64
2022/01/03 11:15:38;;;;;;;18.90;3.90;;;;;;;10.85;86.54;100965.91;5118341;28;20110;-66
2022/01/03 11:18:16;;;;;;;21.17;3.90;;;;;;;11.04;85.82;100974.41;5118106;28;20071;-65
2022/01/03 11:20:43;;;;;;;15.35;3.22;;;;;;;11.08;84.41;100974.31;5117991;28;20028;-64
2022/01/03 11:23:09;;;;;;;22.15;4.07;;;;;;;11.02;84.20;100963.06;5117614;28;20111;-64
2022/01/03 11:25:36;;;;;;;22.60;3.83;;;;;;;11.01;84.82;100962.19;5112590;28;20362;-66
2022/01/03 11:28:03;;;;;;;22.70;3.80;;;;;;;10.94;84.92;100957.06;5097348;28;20092;-67
2022/01/03 11:30:29;;;;;;;16.75;3.65;;;;;;;11.11;83.98;100949.84;5097705;28;20381;-66
2022/01/03 11:32:56;;;;;;;15.13;3.15;;;;;;;11.02;85.05;100960.44;5097323;28;20442;-69
2022/01/03 11:35:21;;;;;;;20.10;3.05;;;;;;;11.12;82.94;100957.66;5096842;28;20105;-67
2022/01/03 11:37:48;;;;;;;17.55;3.22;;;;;;;11.01;83.53;100958.72;5105119;28;20366;-64
2022/01/03 11:40:17;;;;;;;21.23;3.65;;;;;;;10.91;84.42;100954.50;5105944;28;20028;-66
2022/01/03 11:42:44;;;;;;;17.73;3.42;;;;;;;10.92;84.16;100954.44;5106002;28;20407;-66